Time;durP1;ratioP1;P1;durP2;ratioP2;P2;SDS_P1;SDS_P2;PMS_P1;PMS_P2;Temp;Humidity;BMP_temperature;BMP_pressure;BME280_temperature;BME280_humidity;BME280_pressure;Samples;Min_cycle;Max_cycle;Signal;HPM_P1;HPM_P2
2021/10/31 00:00:09;;;;;;;36.22;19.83;;;;;;;;;;5065479;28;20041;-64
2021/10/31 00:02:35;;;;;;;41.40;20.00;;;;;;;;;;5065843;28;20613;-64
2021/10/31 00:05:01;;;;;;;39.60;19.77;;;;;;;;;;5065374;28;20041;-64
2021/10/31 00:07:27;;;;;;;46.10;21.65;;;;;;;;;;5082696;28;20063;-64
2021/10/31 00:09:53;;;;;;;38.13;19.98;;;;;;;;;;5085424;28;20042;-64
2021/10/31 00:12:19;;;;;;;41.95;21.17;;;;;;;;;;5084010;28;20037;-64
2021/10/31 00:14:45;;;;;;;48.17;22.13;;;;;;;;;;5084627;28;20100;-64
2021/10/31 00:17:11;;;;;;;44.53;22.88;;;;;;;;;;5071845;28;20041;-64
2021/10/31 00:19:37;;;;;;;42.65;21.67;;;;;;;;;;5084977;28;20045;-64
2021/10/31 00:22:04;;;;;;;47.58;22.65;;;;;;;;;;5085858;28;20044;-65
2021/10/31 00:24:30;;;;;;;47.28;23.27;;;;;;;;;;5077632;28;20048;-65
2021/10/31 00:26:56;;;;;;;42.85;22.05;;;;;;;;;;5087704;28;20060;-65
2021/10/31 00:29:22;;;;;;;52.28;24.25;;;;;;;;;;5078450;28;20123;-64
2021/10/31 00:31:48;;;;;;;41.58;21.63;;;;;;;;;;5082957;28;20043;-64
2021/10/31 00:34:14;;;;;;;46.78;24.90;;;;;;;;;;5069707;28;20048;-64
2021/10/31 00:36:40;;;;;;;48.83;24.58;;;;;;;;;;5068069;28;20455;-65
2021/10/31 00:39:06;;;;;;;51.85;26.25;;;;;;;;;;5063292;28;20049;-64
2021/10/31 00:41:33;;;;;;;46.47;24.73;;;;;;;;;;5064037;28;20049;-65
2021/10/31 00:43:59;;;;;;;50.37;25.30;;;;;;;;;;5064336;28;20048;-65
2021/10/31 00:46:26;;;;;;;53.75;25.48;;;;;;;;;;5064135;28;20779;-65
2021/10/31 00:48:52;;;;;;;51.90;25.02;;;;;;;;;;5064409;28;20048;-65
2021/10/31 00:51:18;;;;;;;53.17;25.17;;;;;;;;;;5067212;28;20270;-64
2021/10/31 00:53:44;;;;;;;46.85;26.10;;;;;;;;;;5074483;28;20052;-64
2021/10/31 00:56:11;;;;;;;57.35;26.58;;;;;;;;;;5063772;28;20036;-64
2021/10/31 00:58:37;;;;;;;56.55;27.20;;;;;;;;;;5063998;28;20051;-64
2021/10/31 01:01:03;;;;;;;62.38;27.92;;;;;;;;;;5073889;28;20071;-64
2021/10/31 01:03:30;;;;;;;56.67;28.52;;;;;;;;;;5064440;28;20504;-64
2021/10/31 01:06:08;;;;;;;54.97;26.98;;;;;;;;;;5063934;28;20056;-63
2021/10/31 01:08:37;;;;;;;51.90;29.30;;;;;;;;;;5078159;28;20055;-65
2021/10/31 01:11:22;;;;;;;52.97;28.95;;;;;;;;;;5063155;28;20048;-64
2021/10/31 01:14:07;;;;;;;61.53;29.88;;;;;;;;;;5068157;28;20509;-65
2021/10/31 01:16:43;;;;;;;55.65;27.30;;;;;;;;;;5063676;28;20396;-65
2021/10/31 01:19:27;;;;;;;63.00;28.25;;;;;;;;;;5063614;28;20045;-65
2021/10/31 01:22:16;;;;;;;65.38;29.30;;;;;;;;;;5063477;28;20182;-65
2021/10/31 01:25:01;;;;;;;65.07;28.65;;;;;;;;;;5058125;28;20057;-65
2021/10/31 01:27:31;;;;;;;61.55;27.30;;;;;;;;;;5064211;28;20041;-65
2021/10/31 01:30:16;;;;;;;58.60;26.63;;;;;;;;;;5065406;28;20037;-65
2021/10/31 01:33:01;;;;;;;65.85;28.77;;;;;;;;;;5063927;28;20492;-65
2021/10/31 01:35:49;;;;;;;69.32;29.80;;;;;;;;;;5063698;28;20056;-65
2021/10/31 01:38:25;;;;;;;62.90;30.60;;;;;;;;;;5067594;28;20072;-65
2021/10/31 01:40:51;;;;;;;72.38;30.27;;;;;;;;;;5067276;28;20743;-65
2021/10/31 01:43:29;;;;;;;65.30;29.63;;;;;;;;;;5067320;28;20041;-64
2021/10/31 01:45:55;;;;;;;;;;;;;;;;;;5082978;28;20060;-65
2021/10/31 01:48:37;;;;;;;63.97;29.17;;;;;;;;;;5071419;28;19920;-65
2021/10/31 01:51:08;;;;;;;73.63;29.88;;;;;;;;;;5066588;28;20056;-65
2021/10/31 01:53:58;;;;;;;65.68;31.60;;;;;;;;;;5085232;28;20104;-65
2021/10/31 01:56:24;;;;;;;64.40;30.83;;;;;;;;;;5074242;28;20288;-65
2021/10/31 01:58:54;;;;;;;69.40;31.17;;;;;;;;;;5068297;28;20072;-65
2021/10/31 02:01:20;;;;;;;69.78;32.33;;;;;;;;;;5081416;28;20036;-65
2021/10/31 02:03:47;;;;;;;79.95;34.38;;;;;;;;;;5073137;28;20040;-65
2021/10/31 02:06:14;;;;;;;75.77;33.40;;;;;;;;;;5069204;28;20048;-65
2021/10/31 02:08:42;;;;;;;78.75;34.72;;;;;;;;;;5067542;28;20044;-65
2021/10/31 02:11:10;;;;;;;79.30;34.13;;;;;;;;;;5082023;28;20052;-65
2021/10/31 02:13:37;;;;;;;90.57;36.75;;;;;;;;;;5072596;28;20096;-65
2021/10/31 02:16:04;;;;;;;92.55;39.15;;;;;;;;;;5074229;28;20044;-65
2021/10/31 02:18:30;;;;;;;84.55;37.90;;;;;;;;;;5087898;28;20053;-65
2021/10/31 02:20:58;;;;;;;87.30;37.85;;;;;;;;;;5077539;28;20064;-65
2021/10/31 02:23:24;;;;;;;94.82;41.20;;;;;;;;;;5070370;28;20053;-65
2021/10/31 02:25:51;;;;;;;95.65;38.90;;;;;;;;;;5066892;28;20080;-65
2021/10/31 02:28:17;;;;;;;85.68;40.60;;;;;;;;;;5071005;28;20041;-66
2021/10/31 02:30:44;;;;;;;88.45;37.95;;;;;;;;;;5082622;28;20053;-64
2021/10/31 02:33:10;;;;;;;101.20;41.88;;;;;;;;;;5067119;28;20040;-64
2021/10/31 02:35:38;;;;;;;90.60;40.47;;;;;;;;;;5065909;28;20056;-64
2021/10/31 02:38:04;;;;;;;88.65;39.17;;;;;;;;;;5069565;28;20036;-64
2021/10/31 02:40:35;;;;;;;97.13;40.80;;;;;;;;;;5065343;28;20045;-64
2021/10/31 02:43:01;;;;;;;84.28;38.35;;;;;;;;;;5065715;28;20048;-64
2021/10/31 02:45:27;;;;;;;100.45;41.63;;;;;;;;;;5065094;28;20049;-64
2021/10/31 02:47:54;;;;;;;88.93;41.10;;;;;;;;;;5064858;28;20051;-65
2021/10/31 02:50:24;;;;;;;97.95;40.63;;;;;;;;;;5065590;28;20036;-64
2021/10/31 02:53:09;;;;;;;94.13;40.20;;;;;;;;;;5065751;28;20053;-64
2021/10/31 02:55:37;;;;;;;98.93;38.97;;;;;;;;;;5080379;28;20423;-64
2021/10/31 02:58:07;;;;;;;98.15;39.97;;;;;;;;;;5065208;28;20120;-64
2021/10/31 03:00:36;;;;;;;95.88;42.45;;;;;;;;;;5073185;28;20056;-64
2021/10/31 03:03:02;;;;;;;98.10;40.40;;;;;;;;;;5069439;28;20628;-64
2021/10/31 03:05:28;;;;;;;101.03;42.03;;;;;;;;;;5089147;28;20049;-64
2021/10/31 03:07:56;;;;;;;99.78;42.75;;;;;;;;;;5064798;28;20543;-65
2021/10/31 03:10:22;;;;;;;96.40;42.75;;;;;;;;;;5063733;28;20102;-64
2021/10/31 03:12:48;;;;;;;98.78;42.10;;;;;;;;;;5064644;28;20080;-64
2021/10/31 03:15:15;;;;;;;94.72;41.95;;;;;;;;;;5065145;28;20036;-64
2021/10/31 03:17:41;;;;;;;91.30;40.10;;;;;;;;;;5065395;28;20044;-64
2021/10/31 03:20:07;;;;;;;92.38;42.05;;;;;;;;;;5064468;28;20462;-64
2021/10/31 03:22:34;;;;;;;91.03;41.95;;;;;;;;;;5080275;28;20048;-64
2021/10/31 03:25:00;;;;;;;91.38;40.38;;;;;;;;;;5077180;28;20052;-64
2021/10/31 03:27:26;;;;;;;101.25;41.30;;;;;;;;;;5064799;28;20049;-64
2021/10/31 03:29:53;;;;;;;85.78;40.13;;;;;;;;;;5064298;28;20045;-64
2021/10/31 03:32:20;;;;;;;95.82;41.63;;;;;;;;;;5064839;28;20033;-64
2021/10/31 03:34:46;;;;;;;89.50;41.20;;;;;;;;;;5064635;28;20044;-64
2021/10/31 03:37:29;;;;;;;96.13;42.53;;;;;;;;;;5154306;27;20710;-63
2021/10/31 03:39:55;;;;;;;95.25;41.00;;;;;;;;;;5128791;28;20086;-64
2021/10/31 03:42:22;;;;;;;103.32;43.25;;;;;;;;;;5130681;28;20047;-64
2021/10/31 03:44:49;;;;;;;93.72;40.88;;;;;;;;;;5129386;28;20673;-64
2021/10/31 03:47:16;;;;;;;80.00;38.85;;;;;;;;;;5130320;28;20115;-64
2021/10/31 03:49:43;;;;;;;96.40;39.53;;;;;;;;;;5122502;28;20040;-65
2021/10/31 03:52:09;;;;;;;86.10;38.30;;;;;;;;;;5133452;28;20047;-64
2021/10/31 03:54:35;;;;;;;84.18;39.03;;;;;;;;;;5132391;28;20035;-64
2021/10/31 03:57:01;;;;;;;88.97;41.55;;;;;;;;;;5131555;28;20043;-64
2021/10/31 03:59:27;;;;;;;80.05;38.88;;;;;;;;;;5123298;28;20074;-64
2021/10/31 04:01:53;;;;;;;90.25;40.50;;;;;;;;;;5136373;28;20043;-64
2021/10/31 04:04:19;;;;;;;88.78;42.33;;;;;;;;;;5123849;28;20048;-64
2021/10/31 04:06:45;;;;;;;90.95;41.25;;;;;;;;;;5137473;28;20067;-64
2021/10/31 04:09:11;;;;;;;92.20;44.25;;;;;;;;;;5132424;28;20084;-64
2021/10/31 04:11:37;;;;;;;95.20;40.97;;;;;;;;;;5124516;28;20364;-64
2021/10/31 04:14:04;;;;;;;99.22;42.47;;;;;;;;;;5132145;28;20096;-64
2021/10/31 04:16:30;;;;;;;88.68;39.90;;;;;;;;;;5124565;28;20088;-64
2021/10/31 04:18:56;;;;;;;91.97;42.95;;;;;;;;;;5102905;28;20124;-64
2021/10/31 04:21:22;;;;;;;98.00;42.67;;;;;;;;;;5126878;28;20083;-64
2021/10/31 04:23:48;;;;;;;102.75;42.53;;;;;;;;;;5130698;28;20046;-64
2021/10/31 04:26:14;;;;;;;90.22;42.13;;;;;;;;;;5136854;28;20067;-64
2021/10/31 04:28:40;;;;;;;96.22;42.30;;;;;;;;;;5123451;28;20066;-64
2021/10/31 04:31:06;;;;;;;97.38;44.70;;;;;;;;;;5121682;28;20059;-64
2021/10/31 04:33:34;;;;;;;94.70;44.72;;;;;;;;;;5125908;28;20035;-64
2021/10/31 04:36:00;;;;;;;88.28;43.95;;;;;;;;;;5136715;28;20055;-64
2021/10/31 04:38:30;;;;;;;101.95;43.58;;;;;;;;;;5129039;28;20148;-64
2021/10/31 04:40:56;;;;;;;97.40;45.13;;;;;;;;;;5122425;28;20502;-64
2021/10/31 04:43:24;;;;;;;95.00;44.85;;;;;;;;;;5127377;28;20588;-64
2021/10/31 04:45:50;;;;;;;91.75;42.63;;;;;;;;;;5122810;28;20051;-64
2021/10/31 04:48:16;;;;;;;95.70;44.25;;;;;;;;;;5116612;28;20060;-64
2021/10/31 04:50:42;;;;;;;100.75;44.67;;;;;;;;;;5113301;28;20040;-64
2021/10/31 04:53:09;;;;;;;84.68;43.83;;;;;;;;;;5117639;28;20047;-64
2021/10/31 04:55:36;;;;;;;96.15;42.53;;;;;;;;;;5111029;28;20050;-64
2021/10/31 04:58:03;;;;;;;87.10;43.15;;;;;;;;;;5124920;28;20035;-64
2021/10/31 05:00:29;;;;;;;88.97;41.43;;;;;;;;;;5119614;28;20439;-63
2021/10/31 05:02:56;;;;;;;95.30;40.95;;;;;;;;;;5118125;28;20491;-64
2021/10/31 05:05:22;;;;;;;88.43;40.17;;;;;;;;;;5111686;28;20036;-63
2021/10/31 05:07:49;;;;;;;92.22;42.63;;;;;;;;;;5120865;28;20066;-64
2021/10/31 05:10:19;;;;;;;89.32;43.03;;;;;;;;;;5121679;28;20040;-63
2021/10/31 05:12:46;;;;;;;97.00;44.30;;;;;;;;;;5101214;28;20487;-64
2021/10/31 05:15:12;;;;;;;99.65;45.53;;;;;;;;;;5123467;28;20488;-64
2021/10/31 05:17:39;;;;;;;111.47;43.83;;;;;;;;;;5107046;28;20098;-64
2021/10/31 05:20:06;;;;;;;105.22;45.53;;;;;;;;;;5124501;28;20048;-64
2021/10/31 05:22:32;;;;;;;109.60;45.22;;;;;;;;;;5117783;28;20476;-64
2021/10/31 05:24:58;;;;;;;109.22;45.15;;;;;;;;;;5124074;28;20233;-64
2021/10/31 05:27:24;;;;;;;106.32;44.15;;;;;;;;;;5117064;28;20044;-64
2021/10/31 05:29:50;;;;;;;85.45;37.65;;;;;;;;;;5108990;28;20186;-64
2021/10/31 05:32:17;;;;;;;108.70;44.65;;;;;;;;;;5107563;28;20044;-64
2021/10/31 05:34:43;;;;;;;106.70;45.72;;;;;;;;;;5121165;28;20043;-63
2021/10/31 05:37:09;;;;;;;99.65;43.42;;;;;;;;;;5114274;28;20086;-64
2021/10/31 05:39:35;;;;;;;113.28;46.33;;;;;;;;;;5121736;28;20127;-63
2021/10/31 05:42:01;;;;;;;116.40;45.17;;;;;;;;;;5115089;28;20402;-64
2021/10/31 05:44:27;;;;;;;102.15;43.80;;;;;;;;;;5111286;28;20085;-64
2021/10/31 05:46:54;;;;;;;113.43;45.25;;;;;;;;;;5108518;28;20047;-64
2021/10/31 05:49:20;;;;;;;96.28;44.40;;;;;;;;;;5113600;28;20040;-63
2021/10/31 05:51:46;;;;;;;103.15;44.70;;;;;;;;;;5109193;28;20043;-64
2021/10/31 05:54:12;;;;;;;110.20;45.22;;;;;;;;;;5122105;28;20043;-64
2021/10/31 05:56:38;;;;;;;97.10;48.28;;;;;;;;;;5116045;28;20294;-63
2021/10/31 05:59:04;;;;;;;97.30;42.08;;;;;;;;;;5114925;28;20039;-63
2021/10/31 06:01:30;;;;;;;91.80;41.30;;;;;;;;;;5090738;28;20058;-63
2021/10/31 06:03:56;;;;;;;98.78;45.40;;;;;;;;;;5118960;28;20036;-64
2021/10/31 06:06:23;;;;;;;95.28;43.05;;;;;;;;;;5118058;28;20081;-64
2021/10/31 06:08:49;;;;;;;83.72;39.33;;;;;;;;;;5120427;28;20044;-64
2021/10/31 06:11:16;;;;;;;85.40;38.67;;;;;;;;;;5088530;28;20055;-63
2021/10/31 06:13:42;;;;;;;104.35;42.17;;;;;;;;;;5121218;28;20064;-63
2021/10/31 06:16:08;;;;;;;85.75;41.08;;;;;;;;;;5112321;28;20044;-63
2021/10/31 06:18:35;;;;;;;77.40;37.95;;;;;;;;;;5123590;28;20065;-63
2021/10/31 06:21:01;;;;;;;83.13;38.17;;;;;;;;;;5117733;28;20054;-63
2021/10/31 06:23:27;;;;;;;85.50;39.15;;;;;;;;;;5120495;28;20039;-63
2021/10/31 06:25:53;;;;;;;65.18;30.70;;;;;;;;;;5105160;28;20047;-63
2021/10/31 06:28:19;;;;;;;73.47;35.70;;;;;;;;;;5092446;28;20101;-65
2021/10/31 06:30:46;;;;;;;68.43;36.65;;;;;;;;;;5115508;28;20074;-64
2021/10/31 06:33:12;;;;;;;55.58;31.95;;;;;;;;;;5123024;28;20051;-64
2021/10/31 06:35:38;;;;;;;60.50;32.33;;;;;;;;;;5115850;28;20062;-64
2021/10/31 06:38:05;;;;;;;64.70;33.17;;;;;;;;;;5122702;28;20051;-64
2021/10/31 06:40:31;;;;;;;61.33;34.03;;;;;;;;;;5110982;28;20517;-64
2021/10/31 06:42:57;;;;;;;57.58;32.55;;;;;;;;;;5107090;28;20096;-64
2021/10/31 06:45:23;;;;;;;57.03;30.80;;;;;;;;;;5114131;28;20044;-64
2021/10/31 06:47:49;;;;;;;59.58;31.90;;;;;;;;;;5122688;28;20055;-64
2021/10/31 06:50:15;;;;;;;55.40;29.52;;;;;;;;;;5114636;28;20414;-64
2021/10/31 06:52:41;;;;;;;62.30;31.88;;;;;;;;;;5121564;28;20418;-64
2021/10/31 06:55:10;;;;;;;66.18;32.00;;;;;;;;;;5110596;28;20039;-63
2021/10/31 06:57:36;;;;;;;60.58;31.92;;;;;;;;;;5121422;28;20059;-63
2021/10/31 07:00:04;;;;;;;58.80;29.10;;;;;;;;;;5124390;28;20040;-63
2021/10/31 07:02:30;;;;;;;;;;;;;;;;;;5098838;28;20507;-63
2021/10/31 07:04:56;;;;;;;59.75;30.23;;;;;;;;;;5124230;28;19926;-63
2021/10/31 07:07:22;;;;;;;57.78;30.02;;;;;;;;;;5118130;28;20050;-63
2021/10/31 07:09:48;;;;;;;52.42;28.83;;;;;;;;;;5122089;28;20050;-63
2021/10/31 07:12:15;;;;;;;57.03;29.67;;;;;;;;;;5119238;28;20082;-63
2021/10/31 07:14:41;;;;;;;50.70;27.37;;;;;;;;;;5120840;28;20594;-63
2021/10/31 07:17:07;;;;;;;57.78;29.13;;;;;;;;;;5121278;28;20075;-62
2021/10/31 07:19:33;;;;;;;53.65;28.30;;;;;;;;;;5117303;28;20039;-63
2021/10/31 07:22:00;;;;;;;51.22;29.35;;;;;;;;;;5109969;28;20067;-63
2021/10/31 07:24:26;;;;;;;50.70;26.98;;;;;;;;;;5116836;28;20126;-63
2021/10/31 07:26:52;;;;;;;49.45;25.52;;;;;;;;;;5124346;28;20040;-63
2021/10/31 07:29:18;;;;;;;55.20;28.75;;;;;;;;;;5123936;28;20445;-63
2021/10/31 07:31:46;;;;;;;50.03;26.05;;;;;;;;;;5090617;28;20079;-63
2021/10/31 07:34:12;;;;;;;46.00;25.83;;;;;;;;;;5115820;28;20043;-63
2021/10/31 07:36:39;;;;;;;47.40;26.02;;;;;;;;;;5122621;28;20262;-63
2021/10/31 07:39:06;;;;;;;48.65;25.95;;;;;;;;;;5115849;28;20083;-63
2021/10/31 07:41:32;;;;;;;45.58;27.23;;;;;;;;;;5122068;28;20130;-63
2021/10/31 07:43:58;;;;;;;44.80;27.50;;;;;;;;;;5115265;28;20032;-64
2021/10/31 07:46:24;;;;;;;48.15;25.02;;;;;;;;;;5122705;28;20075;-63
2021/10/31 07:48:50;;;;;;;47.80;26.00;;;;;;;;;;5110713;28;20039;-63
2021/10/31 07:51:16;;;;;;;46.53;24.75;;;;;;;;;;5118511;28;20111;-63
2021/10/31 07:53:43;;;;;;;40.20;24.00;;;;;;;;;;5112488;28;20044;-63
2021/10/31 07:56:12;;;;;;;39.13;22.70;;;;;;;;;;5112672;28;20043;-63
2021/10/31 07:58:38;;;;;;;44.13;26.17;;;;;;;;;;5112714;28;20048;-64
2021/10/31 08:01:05;;;;;;;44.38;24.55;;;;;;;;;;5114576;28;20172;-63
2021/10/31 08:03:31;;;;;;;37.47;24.00;;;;;;;;;;5115843;28;20107;-63
2021/10/31 08:05:57;;;;;;;35.03;21.95;;;;;;;;;;5113061;28;20036;-63
2021/10/31 08:08:25;;;;;;;38.55;22.48;;;;;;;;;;5117252;28;20044;-63
2021/10/31 08:10:52;;;;;;;37.90;23.55;;;;;;;;;;5085749;28;20036;-63
2021/10/31 08:13:25;;;;;;;34.38;21.65;;;;;;;;;;5122600;28;20078;-64
2021/10/31 08:15:52;;;;;;;34.20;22.38;;;;;;;;;;5112360;28;20044;-64
2021/10/31 08:18:19;;;;;;;39.65;22.70;;;;;;;;;;5105613;28;20040;-64
2021/10/31 08:20:45;;;;;;;35.53;22.50;;;;;;;;;;5110303;28;20040;-67
2021/10/31 08:23:14;;;;;;;34.83;21.73;;;;;;;;;;5117727;28;20471;-63
2021/10/31 08:25:40;;;;;;;33.35;21.23;;;;;;;;;;5118838;28;20039;-64
2021/10/31 08:28:09;;;;;;;32.55;20.27;;;;;;;;;;5120101;28;20101;-64
2021/10/31 08:30:35;;;;;;;33.42;20.70;;;;;;;;;;5126646;28;20052;-65
2021/10/31 08:33:07;;;;;;;32.15;20.05;;;;;;;;;;5121698;28;20054;-64
2021/10/31 08:35:34;;;;;;;33.83;20.20;;;;;;;;;;5107943;28;20166;-64
2021/10/31 08:38:01;;;;;;;31.52;18.70;;;;;;;;;;5120872;28;20048;-66
2021/10/31 08:40:27;;;;;;;30.63;19.45;;;;;;;;;;5104104;28;20051;-64
2021/10/31 08:42:53;;;;;;;33.47;19.35;;;;;;;;;;5110001;28;20044;-63
2021/10/31 08:45:19;;;;;;;29.95;19.05;;;;;;;;;;5108440;28;20146;-64
2021/10/31 08:47:45;;;;;;;29.20;18.30;;;;;;;;;;5118207;28;20052;-64
2021/10/31 08:50:12;;;;;;;25.65;19.20;;;;;;;;;;5108594;28;20042;-64
2021/10/31 08:52:39;;;;;;;28.58;18.67;;;;;;;;;;5115403;28;20051;-64
2021/10/31 08:55:05;;;;;;;27.00;18.00;;;;;;;;;;5123765;28;20040;-65
2021/10/31 08:57:31;;;;;;;32.47;17.83;;;;;;;;;;5116484;28;20050;-64
2021/10/31 08:59:58;;;;;;;27.25;17.42;;;;;;;;;;5119319;28;20035;-64
2021/10/31 09:02:25;;;;;;;23.55;17.52;;;;;;;;;;5115031;28;20087;-64
2021/10/31 09:04:51;;;;;;;28.00;18.13;;;;;;;;;;5115518;28;20032;-64
2021/10/31 09:07:17;;;;;;;25.75;17.80;;;;;;;;;;5110933;28;20054;-65
2021/10/31 09:09:44;;;;;;;22.70;16.45;;;;;;;;;;5123695;28;20043;-64
2021/10/31 09:12:11;;;;;;;29.63;17.52;;;;;;;;;;5123979;28;20044;-64
2021/10/31 09:14:37;;;;;;;21.08;15.45;;;;;;;;;;5121568;28;20061;-64
2021/10/31 09:17:03;;;;;;;22.90;16.38;;;;;;;;;;5108450;28;20046;-64
2021/10/31 09:19:29;;;;;;;22.80;14.40;;;;;;;;;;5106654;28;20168;-64
2021/10/31 09:21:55;;;;;;;26.63;15.80;;;;;;;;;;5102712;28;20066;-64
2021/10/31 09:24:21;;;;;;;19.17;14.98;;;;;;;;;;5111994;28;20043;-64
2021/10/31 09:26:47;;;;;;;22.90;15.13;;;;;;;;;;5115462;28;20174;-63
2021/10/31 09:29:13;;;;;;;22.10;15.05;;;;;;;;;;5116143;28;20031;-64
2021/10/31 09:31:39;;;;;;;24.35;15.68;;;;;;;;;;5118610;28;20126;-64
2021/10/31 09:34:06;;;;;;;19.83;14.68;;;;;;;;;;5112733;28;20036;-64
2021/10/31 09:36:35;;;;;;;23.55;15.38;;;;;;;;;;5096694;28;20314;-64
2021/10/31 09:39:06;;;;;;;20.65;14.88;;;;;;;;;;5119699;28;20044;-63
2021/10/31 09:41:33;;;;;;;18.48;13.65;;;;;;;;;;5093512;28;20083;-64
2021/10/31 09:46:41;;;;;;;21.30;13.73;;;;;;;;;;5118035;28;20052;-64
2021/10/31 09:49:10;;;;;;;20.95;12.80;;;;;;;;;;5097963;28;20051;-63
2021/10/31 09:51:36;;;;;;;20.27;13.65;;;;;;;;;;5110392;28;20081;-63
2021/10/31 09:54:03;;;;;;;23.90;12.88;;;;;;;;;;5095596;28;20111;-63
2021/10/31 09:56:29;;;;;;;16.90;12.60;;;;;;;;;;5109997;28;20088;-64
2021/10/31 09:58:59;;;;;;;18.15;12.98;;;;;;;;;;5108339;28;20113;-68
2021/10/31 10:01:37;;;;;;;16.00;12.15;;;;;;;;;;5106699;28;20043;-66
2021/10/31 10:04:04;;;;;;;18.48;13.45;;;;;;;;;;5090936;28;20048;-62
2021/10/31 10:06:32;;;;;;;19.85;12.85;;;;;;;;;;5102149;28;20107;-66
2021/10/31 10:09:08;;;;;;;18.75;13.20;;;;;;;;;;5118893;28;20054;-66
2021/10/31 10:11:44;;;;;;;14.70;11.82;;;;;;;;;;5109588;28;20559;-66
2021/10/31 10:14:18;;;;;;;18.67;11.18;;;;;;;;;;5096373;28;20075;-66
2021/10/31 10:16:45;;;;;;;12.10;10.52;;;;;;;;;;5111205;28;20104;-65
2021/10/31 10:19:17;;;;;;;18.58;9.73;;;;;;;;;;5117113;28;20039;-65
2021/10/31 10:21:43;;;;;;;17.92;10.45;;;;;;;;;;5104564;28;20067;-65
2021/10/31 10:24:13;;;;;;;15.30;11.63;;;;;;;;;;5119828;28;20054;-65
2021/10/31 10:26:43;;;;;;;13.90;9.23;;;;;;;;;;5109767;28;20473;-71
2021/10/31 10:29:14;;;;;;;10.90;7.60;;;;;;;;;;5121283;28;20038;-68
2021/10/31 10:31:41;;;;;;;12.98;8.40;;;;;;;;;;5116923;28;20066;-68
2021/10/31 10:34:07;;;;;;;11.35;7.45;;;;;;;;;;5116384;28;20091;-65
2021/10/31 10:36:38;;;;;;;11.02;6.75;;;;;;;;;;5124022;28;20069;-77
2021/10/31 10:39:06;;;;;;;9.98;6.68;;;;;;;;;;5100425;28;20550;-69
2021/10/31 10:41:44;;;;;;;7.75;5.90;;;;;;;;;;5083647;28;20103;-70
2021/10/31 10:44:18;;;;;;;6.50;5.05;;;;;;;;;;5096915;28;20052;-74
2021/10/31 10:46:45;;;;;;;7.15;5.35;;;;;;;;;;5112691;28;20046;-76
2021/10/31 10:49:12;;;;;;;10.13;5.40;;;;;;;;;;5105542;28;20044;-76
2021/10/31 10:51:38;;;;;;;8.88;5.18;;;;;;;;;;5107099;28;20039;-78
2021/10/31 10:54:15;;;;;;;8.18;5.38;;;;;;;;;;5093724;28;20131;-64
2021/10/31 10:57:00;;;;;;;10.02;5.07;;;;;;;;;;5113281;28;20148;-64
2021/10/31 10:59:27;;;;;;;7.13;4.35;;;;;;;;;;5112443;28;20511;-64
2021/10/31 11:02:13;;;;;;;7.82;4.57;;;;;;;;;;5125435;28;20071;-64
2021/10/31 11:04:39;;;;;;;7.05;4.95;;;;;;;;;;5112574;28;20059;-64
2021/10/31 11:07:06;;;;;;;7.82;4.97;;;;;;;;;;5120343;28;20070;-64
2021/10/31 11:09:46;;;;;;;5.78;4.30;;;;;;;;;;5120570;28;20118;-64
2021/10/31 11:12:22;;;;;;;5.38;3.75;;;;;;;;;;5107519;28;20110;-64
2021/10/31 11:14:49;;;;;;;6.97;3.83;;;;;;;;;;5118865;28;20467;-64
2021/10/31 11:17:15;;;;;;;5.97;3.63;;;;;;;;;;5115393;28;21431;-63
2021/10/31 11:19:41;;;;;;;8.27;3.97;;;;;;;;;;5119763;28;20051;-63
2021/10/31 11:22:08;;;;;;;7.75;3.63;;;;;;;;;;5119803;28;20040;-67
2021/10/31 11:24:34;;;;;;;4.57;3.43;;;;;;;;;;5107985;28;20300;-62
2021/10/31 11:27:01;;;;;;;6.88;3.53;;;;;;;;;;5120248;28;20301;-64
2021/10/31 11:29:30;;;;;;;6.38;3.33;;;;;;;;;;5116407;28;20079;-64
2021/10/31 11:31:56;;;;;;;7.15;3.85;;;;;;;;;;5119481;28;20410;-64
2021/10/31 11:34:24;;;;;;;7.30;3.88;;;;;;;;;;5118025;28;20071;-64
2021/10/31 11:36:51;;;;;;;6.55;4.25;;;;;;;;;;5119776;28;20058;-64
2021/10/31 11:39:18;;;;;;;7.32;4.00;;;;;;;;;;5113645;28;20048;-65
2021/10/31 11:41:44;;;;;;;8.02;4.35;;;;;;;;;;5117882;28;20169;-64
2021/10/31 11:44:10;;;;;;;7.38;3.97;;;;;;;;;;5119323;28;20233;-65
2021/10/31 11:46:38;;;;;;;6.80;4.05;;;;;;;;;;5113761;28;20044;-65
2021/10/31 11:49:04;;;;;;;;;;;;;;;;;;5113789;28;20040;-64
2021/10/31 11:51:40;;;;;;;7.47;3.78;;;;;;;;;;5099062;28;20295;-64
2021/10/31 11:54:06;;;;;;;6.53;3.90;;;;;;;;;;5120263;28;20087;-64
2021/10/31 11:56:38;;;;;;;7.40;4.20;;;;;;;;;;5115834;28;20100;-65
2021/10/31 11:59:14;;;;;;;4.45;3.33;;;;;;;;;;5125145;28;20044;-65
2021/10/31 12:01:43;;;;;;;6.05;3.95;;;;;;;;;;5125380;28;20092;-65
2021/10/31 12:04:42;;;;;;;6.15;3.58;;;;;;;;;;5101759;28;20048;-65
2021/10/31 12:07:32;;;;;;;7.00;4.07;;;;;;;;;;5104270;28;20055;-65
2021/10/31 12:09:58;;;;;;;7.80;4.53;;;;;;;;;;5120307;28;20047;-65
2021/10/31 12:12:24;;;;;;;5.85;4.35;;;;;;;;;;5109726;28;20087;-64
2021/10/31 12:14:51;;;;;;;7.97;4.90;;;;;;;;;;5107501;28;20449;-66
2021/10/31 12:17:18;;;;;;;9.02;5.47;;;;;;;;;;5126724;28;20039;-65
2021/10/31 12:19:49;;;;;;;9.63;5.47;;;;;;;;;;5104957;28;20055;-65
2021/10/31 12:22:32;;;;;;;8.38;4.97;;;;;;;;;;5114117;28;20824;-65
2021/10/31 12:25:11;;;;;;;13.75;5.85;;;;;;;;;;5091569;28;20287;-65
2021/10/31 12:27:51;;;;;;;9.75;5.32;;;;;;;;;;5122701;28;20043;-65
2021/10/31 12:30:25;;;;;;;7.32;4.90;;;;;;;;;;5107590;28;20141;-65
2021/10/31 12:33:05;;;;;;;9.57;5.50;;;;;;;;;;5123083;28;20043;-65
2021/10/31 12:35:39;;;;;;;8.88;6.32;;;;;;;;;;5111120;28;20044;-65
2021/10/31 12:38:28;;;;;;;10.10;5.45;;;;;;;;;;5116948;28;20040;-65
2021/10/31 12:41:06;;;;;;;7.93;5.68;;;;;;;;;;5119909;28;20040;-65
2021/10/31 12:43:46;;;;;;;9.95;5.53;;;;;;;;;;5117640;28;20126;-65
2021/10/31 12:46:20;;;;;;;8.98;6.03;;;;;;;;;;5108757;28;20044;-65
2021/10/31 12:48:46;;;;;;;11.05;6.90;;;;;;;;;;5117889;28;20035;-65
2021/10/31 12:51:17;;;;;;;10.48;5.60;;;;;;;;;;5121702;28;20059;-65
2021/10/31 12:53:44;;;;;;;13.38;6.95;;;;;;;;;;5120976;28;20040;-65
2021/10/31 12:56:10;;;;;;;9.18;6.43;;;;;;;;;;5122643;28;20309;-65
2021/10/31 12:58:37;;;;;;;12.30;5.95;;;;;;;;;;5092336;28;20146;-64
2021/10/31 13:01:03;;;;;;;9.33;6.37;;;;;;;;;;5115584;28;20078;-64
2021/10/31 13:03:29;;;;;;;8.93;6.63;;;;;;;;;;5122135;28;20040;-64
2021/10/31 13:05:56;;;;;;;11.82;6.90;;;;;;;;;;5110259;28;20070;-64
2021/10/31 13:08:22;;;;;;;13.52;6.90;;;;;;;;;;5111037;28;20066;-64
2021/10/31 13:10:51;;;;;;;9.68;7.05;;;;;;;;;;5122937;28;20079;-64
2021/10/31 13:13:19;;;;;;;8.88;6.50;;;;;;;;;;5101765;28;20625;-64
2021/10/31 13:15:45;;;;;;;;;;;;;;;;;;5111632;28;20063;-64
2021/10/31 13:18:37;;;;;;;11.13;6.93;;;;;;;;;;5101576;28;19920;-64
2021/10/31 13:21:09;;;;;;;8.43;5.65;;;;;;;;;;5112091;28;20107;-65
2021/10/31 13:23:37;;;;;;;8.35;6.25;;;;;;;;;;5110179;28;20047;-66
2021/10/31 13:26:05;;;;;;;11.70;6.40;;;;;;;;;;5119608;28;20162;-69
2021/10/31 13:28:31;;;;;;;;;;;;;;;;;;5112667;28;20051;-71
2021/10/31 13:31:07;;;;;;;8.90;5.88;;;;;;;;;;5120087;28;19916;-73
2021/10/31 13:33:36;;;;;;;7.60;6.03;;;;;;;;;;5113762;28;20099;-68
2021/10/31 13:36:21;;;;;;;9.13;6.15;;;;;;;;;;5121076;28;20685;-64
2021/10/31 13:38:49;;;;;;;9.25;5.55;;;;;;;;;;5119122;28;20040;-67
2021/10/31 13:41:15;;;;;;;8.07;5.80;;;;;;;;;;5116596;28;20036;-64
2021/10/31 13:43:42;;;;;;;9.50;5.53;;;;;;;;;;5121075;28;20039;-65
2021/10/31 13:46:08;;;;;;;8.77;5.45;;;;;;;;;;5101328;28;20092;-69
2021/10/31 13:48:41;;;;;;;7.32;5.60;;;;;;;;;;5114352;28;20052;-67
2021/10/31 13:51:08;;;;;;;9.07;5.70;;;;;;;;;;5065608;28;20523;-70
2021/10/31 13:53:35;;;;;;;8.93;6.32;;;;;;;;;;5108950;28;20059;-65
2021/10/31 13:56:01;;;;;;;7.25;5.20;;;;;;;;;;5116149;28;20487;-71
2021/10/31 13:58:27;;;;;;;8.57;5.45;;;;;;;;;;5099948;28;20046;-66
2021/10/31 14:00:53;;;;;;;5.88;4.53;;;;;;;;;;5107201;28;20048;-69
2021/10/31 14:03:27;;;;;;;6.90;4.93;;;;;;;;;;5114976;28;20082;-66
2021/10/31 14:05:53;;;;;;;7.28;5.70;;;;;;;;;;5120839;28;20522;-66
2021/10/31 14:08:21;;;;;;;6.63;5.53;;;;;;;;;;5114234;28;20055;-65
2021/10/31 14:10:48;;;;;;;6.53;5.38;;;;;;;;;;5114619;28;20038;-64
2021/10/31 14:13:15;;;;;;;6.68;4.70;;;;;;;;;;5118289;28;20115;-66
2021/10/31 14:15:43;;;;;;;9.25;5.50;;;;;;;;;;5114362;28;20131;-71
2021/10/31 14:18:09;;;;;;;;;;;;;;;;;;5097704;28;20047;-71
2021/10/31 14:20:43;;;;;;;7.68;4.65;;;;;;;;;;5115165;28;19967;-71
2021/10/31 14:23:10;;;;;;;8.25;5.00;;;;;;;;;;5114917;28;20193;-71
2021/10/31 14:25:44;;;;;;;5.75;4.72;;;;;;;;;;5108506;28;20051;-71
2021/10/31 14:28:11;;;;;;;8.52;4.85;;;;;;;;;;5118003;28;20051;-70
2021/10/31 14:30:38;;;;;;;5.63;4.20;;;;;;;;;;5091860;28;20074;-70
2021/10/31 14:33:07;;;;;;;7.07;4.05;;;;;;;;;;5096521;28;20046;-70
2021/10/31 14:35:47;;;;;;;7.07;4.50;;;;;;;;;;5092700;28;20044;-70